Time;durP1;ratioP1;P1;durP2;ratioP2;P2;SDS_P1;SDS_P2;PMS_P1;PMS_P2;Temp;Humidity;BMP_temperature;BMP_pressure;BME280_temperature;BME280_humidity;BME280_pressure;Samples;Min_cycle;Max_cycle;Signal;HPM_P1;HPM_P2
2022/03/04 00:02:00;;;;;;;15.40;11.18;;;;;;;11.03;60.46;100878.09;5039282;28;20041;-45
2022/03/04 00:04:26;;;;;;;15.10;11.20;;;;;;;10.45;61.80;100877.03;5031344;28;20381;-44
2022/03/04 00:06:54;;;;;;;15.27;12.25;;;;;;;10.05;63.77;100873.69;5030265;28;20034;-43
2022/03/04 00:09:20;;;;;;;15.27;11.55;;;;;;;9.83;63.99;100888.78;5030397;28;20057;-44
2022/03/04 00:11:47;;;;;;;19.73;13.60;;;;;;;9.57;65.53;100892.63;5031642;28;20033;-45
2022/03/04 00:14:13;;;;;;;15.95;13.48;;;;;;;9.37;66.05;100891.38;5029800;28;20022;-45
2022/03/04 00:16:39;;;;;;;19.73;13.15;;;;;;;9.07;66.88;100870.56;5013412;28;20079;-44
2022/03/04 00:19:07;;;;;;;20.02;13.43;;;;;;;9.12;67.40;100896.84;5030084;28;20034;-44
2022/03/04 00:21:35;;;;;;;23.10;15.02;;;;;;;8.97;68.23;100891.38;5013523;28;20338;-43
2022/03/04 00:24:01;;;;;;;22.80;15.20;;;;;;;8.96;68.54;100902.28;5013667;28;20469;-44
2022/03/04 00:26:27;;;;;;;21.63;15.88;;;;;;;8.87;69.21;100904.94;5031318;28;20037;-44
2022/03/04 00:28:54;;;;;;;24.02;16.27;;;;;;;8.83;69.93;100902.81;5031253;28;20104;-44
2022/03/04 00:31:20;;;;;;;19.40;14.63;;;;;;;8.74;69.94;100898.47;5030988;28;20172;-43
2022/03/04 00:33:46;;;;;;;24.05;17.30;;;;;;;8.72;70.36;100912.03;5031605;28;20632;-44
2022/03/04 00:36:12;;;;;;;21.70;16.20;;;;;;;8.63;71.08;100905.00;5030589;28;20022;-45
2022/03/04 00:38:37;;;;;;;22.48;16.52;;;;;;;8.65;70.94;100906.50;5030832;28;20061;-44
2022/03/04 00:41:03;;;;;;;25.02;18.50;;;;;;;8.64;71.47;100909.38;5029798;28;20160;-44
2022/03/04 00:43:29;;;;;;;23.90;17.20;;;;;;;8.63;70.85;100905.84;5030178;28;20069;-44
2022/03/04 00:45:55;;;;;;;23.20;16.88;;;;;;;8.62;71.11;100912.22;5013013;28;20478;-44
2022/03/04 00:48:20;;;;;;;20.08;15.98;;;;;;;8.69;70.93;100923.06;5029692;28;20029;-46
2022/03/04 00:50:47;;;;;;;19.92;15.40;;;;;;;8.67;71.34;100914.38;5030210;28;20067;-48
2022/03/04 00:53:13;;;;;;;21.60;15.88;;;;;;;8.67;70.93;100912.56;5012586;28;20096;-45
2022/03/04 00:55:39;;;;;;;20.77;14.95;;;;;;;8.62;70.69;100903.38;5013083;28;20038;-50
2022/03/04 00:58:06;;;;;;;21.92;15.77;;;;;;;8.63;70.82;100907.69;5030506;28;20053;-47
2022/03/04 01:00:33;;;;;;;24.08;16.80;;;;;;;8.69;71.24;100921.25;5012277;28;20033;-51
2022/03/04 01:03:00;;;;;;;23.25;16.48;;;;;;;8.69;71.33;100920.38;5029589;28;20065;-50
2022/03/04 01:05:45;;;;;;;21.48;17.10;;;;;;;8.65;71.04;100917.22;5019015;28;20040;-47
2022/03/04 01:08:11;;;;;;;25.58;17.13;;;;;;;8.67;71.11;100923.25;5016884;28;20038;-49
2022/03/04 01:10:37;;;;;;;20.27;16.48;;;;;;;8.63;71.32;100908.53;5016926;28;20045;-46
2022/03/04 01:13:03;;;;;;;24.02;18.02;;;;;;;8.64;71.88;100912.88;5016907;28;20030;-46
2022/03/04 01:15:29;;;;;;;29.33;18.17;;;;;;;8.57;71.51;100893.16;5015627;28;20036;-46
2022/03/04 01:17:55;;;;;;;23.63;17.20;;;;;;;8.66;71.71;100902.84;5016927;28;20053;-46
2022/03/04 01:20:22;;;;;;;29.48;18.85;;;;;;;8.64;72.03;100909.38;5015565;28;20038;-46
2022/03/04 01:22:48;;;;;;;25.30;18.15;;;;;;;8.60;72.13;100906.19;5016885;28;20030;-45
2022/03/04 01:25:14;;;;;;;26.60;18.73;;;;;;;8.58;72.74;100904.69;5015155;28;20544;-46
2022/03/04 01:27:59;;;;;;;28.02;19.70;;;;;;;8.62;72.64;100914.91;5016258;28;20092;-46
2022/03/04 01:30:25;;;;;;;28.98;19.92;;;;;;;8.53;72.87;100916.75;5016948;28;20032;-49
2022/03/04 01:32:51;;;;;;;24.98;19.63;;;;;;;8.50;72.89;100910.88;5016048;28;20466;-49
2022/03/04 01:35:17;;;;;;;29.80;21.98;;;;;;;8.43;73.40;100912.56;5015233;28;20049;-48
2022/03/04 01:37:43;;;;;;;32.20;21.42;;;;;;;8.40;73.68;100923.59;4998735;28;20478;-45
2022/03/04 01:40:10;;;;;;;32.65;22.63;;;;;;;8.36;73.56;100924.91;5016614;28;20030;-47
2022/03/04 01:42:38;;;;;;;31.33;22.05;;;;;;;8.30;73.40;100918.38;5016334;28;20048;-45
2022/03/04 01:45:06;;;;;;;33.03;21.92;;;;;;;8.28;74.17;100920.41;5015683;28;20041;-50
2022/03/04 01:47:33;;;;;;;34.05;23.92;;;;;;;8.18;73.86;100906.38;5016007;28;20033;-47
2022/03/04 01:49:59;;;;;;;36.33;23.98;;;;;;;8.17;74.78;100907.34;5015893;28;20121;-49
2022/03/04 01:52:25;;;;;;;38.00;24.90;;;;;;;8.14;74.56;100905.88;5016188;28;20026;-46
2022/03/04 01:54:51;;;;;;;39.10;25.98;;;;;;;8.08;75.08;100901.19;5014321;28;20132;-52
2022/03/04 01:57:17;;;;;;;35.83;24.88;;;;;;;8.01;75.47;100897.50;5016174;28;20073;-47
2022/03/04 01:59:43;;;;;;;41.45;26.27;;;;;;;7.94;75.70;100887.44;5016647;28;20057;-50
2022/03/04 02:02:10;;;;;;;40.40;24.60;;;;;;;7.99;76.09;100895.00;5015870;28;20026;-47
2022/03/04 02:04:37;;;;;;;38.30;25.95;;;;;;;7.94;76.04;100895.47;4998688;28;20054;-48
2022/03/04 02:07:03;;;;;;;38.88;26.85;;;;;;;7.93;75.01;100891.13;5015660;28;20091;-52
2022/03/04 02:09:29;;;;;;;43.83;25.95;;;;;;;7.97;75.34;100901.47;4998112;28;20466;-48
2022/03/04 02:11:55;;;;;;;37.50;25.65;;;;;;;7.95;74.73;100886.47;5015303;28;20045;-49
2022/03/04 02:14:21;;;;;;;36.78;24.42;;;;;;;7.87;75.28;100874.91;5015635;28;20081;-48
2022/03/04 02:16:50;;;;;;;37.92;26.38;;;;;;;7.96;75.34;100889.97;5015252;28;20458;-50
2022/03/04 02:19:17;;;;;;;36.90;27.20;;;;;;;7.92;75.66;100886.78;5015911;28;20022;-48
2022/03/04 02:21:56;;;;;;;48.03;29.65;;;;;;;7.86;76.30;100887.44;5015427;28;20378;-49
2022/03/04 02:24:24;;;;;;;48.38;30.30;;;;;;;7.81;75.84;100887.09;5014512;28;20378;-49
2022/03/04 02:26:52;;;;;;;47.75;29.55;;;;;;;7.82;75.71;100882.59;5015583;28;20388;-47
2022/03/04 02:29:19;;;;;;;45.53;30.35;;;;;;;7.79;76.02;100885.59;5015421;28;20052;-51
2022/03/04 02:31:45;;;;;;;45.25;29.98;;;;;;;7.80;76.18;100889.94;5015009;28;20125;-50
2022/03/04 02:34:11;;;;;;;41.53;27.85;;;;;;;7.82;76.02;100893.28;4997481;28;20116;-48
2022/03/04 02:36:37;;;;;;;43.97;26.55;;;;;;;7.81;75.71;100880.94;5015330;28;20048;-52
2022/03/04 02:39:04;;;;;;;46.03;29.45;;;;;;;7.79;75.94;100889.09;5015377;28;20398;-48
2022/03/04 02:41:30;;;;;;;40.47;26.95;;;;;;;7.83;75.93;100889.63;5014191;28;20048;-50
2022/03/04 02:43:57;;;;;;;41.83;27.65;;;;;;;7.84;75.96;100889.47;5015212;28;20025;-47
2022/03/04 02:46:22;;;;;;;39.63;27.38;;;;;;;7.88;75.13;100896.13;4997374;28;20099;-47
2022/03/04 02:48:48;;;;;;;41.22;26.15;;;;;;;7.85;75.28;100882.25;5015246;28;20458;-49
2022/03/04 02:51:14;;;;;;;37.35;25.65;;;;;;;7.95;74.97;100899.00;5014392;28;20037;-48
2022/03/04 02:53:40;;;;;;;40.90;26.13;;;;;;;7.99;75.07;100902.19;5014421;28;20038;-52
2022/03/04 02:56:05;;;;;;;36.53;25.00;;;;;;;7.89;74.86;100900.50;5015102;28;20410;-55
2022/03/04 02:58:31;;;;;;;40.80;27.00;;;;;;;7.81;75.07;100902.31;5013594;28;20029;-57
2022/03/04 03:00:57;;;;;;;40.50;25.67;;;;;;;7.74;74.83;100899.44;5013433;28;20406;-57
2022/03/04 03:03:23;;;;;;;36.20;22.85;;;;;;;7.64;75.63;100904.13;5014748;28;20071;-55
2022/03/04 03:05:49;;;;;;;36.65;23.95;;;;;;;7.49;76.71;100882.53;5014909;28;20029;-55
2022/03/04 03:08:14;;;;;;;39.85;26.52;;;;;;;7.42;75.69;100892.19;5015097;28;20033;-55
2022/03/04 03:10:40;;;;;;;35.92;24.30;;;;;;;7.37;76.28;100895.34;5014685;28;20478;-54
2022/03/04 03:13:06;;;;;;;34.65;23.60;;;;;;;7.42;75.79;100898.38;5014559;28;20545;-55
2022/03/04 03:15:32;;;;;;;39.85;25.08;;;;;;;7.41;76.73;100899.38;5013503;28;20166;-53
2022/03/04 03:17:57;;;;;;;34.70;24.13;;;;;;;7.42;76.37;100905.56;5014975;28;20034;-54
2022/03/04 03:20:23;;;;;;;35.40;24.17;;;;;;;7.38;76.47;100894.38;5014018;28;20045;-53
2022/03/04 03:22:49;;;;;;;33.58;23.05;;;;;;;7.42;76.13;100905.56;5013082;28;20080;-55
2022/03/04 03:25:15;;;;;;;32.45;23.65;;;;;;;7.40;76.69;100900.38;4996382;28;20035;-54
2022/03/04 03:27:41;;;;;;;44.13;27.45;;;;;;;7.42;76.98;100914.41;5012681;28;20034;-54
2022/03/04 03:30:09;;;;;;;37.97;24.20;;;;;;;7.39;76.42;100911.22;5013877;28;20092;-53
2022/03/04 03:32:34;;;;;;;35.22;24.52;;;;;;;7.23;76.74;100893.31;5014200;28;20430;-54
2022/03/04 03:35:00;;;;;;;36.28;25.50;;;;;;;7.42;76.75;100914.41;5013925;28;20041;-53
2022/03/04 03:37:26;;;;;;;34.60;23.73;;;;;;;7.37;76.54;100914.06;4996453;28;20115;-51
2022/03/04 03:39:52;;;;;;;33.63;22.85;;;;;;;7.37;76.64;100898.03;5014289;28;20038;-50
2022/03/04 03:42:18;;;;;;;36.78;23.55;;;;;;;7.49;76.29;100922.63;5013850;28;20128;-53
2022/03/04 03:44:44;;;;;;;36.97;24.40;;;;;;;7.47;76.88;100911.28;4996328;28;20026;-53
2022/03/04 03:47:10;;;;;;;39.03;24.90;;;;;;;7.42;76.64;100909.06;5013749;28;20037;-54
2022/03/04 03:49:36;;;;;;;36.95;25.48;;;;;;;7.40;76.48;100915.59;5012546;28;20033;-51
2022/03/04 03:52:03;;;;;;;37.40;23.27;;;;;;;7.36;76.49;100907.06;5014090;28;20386;-55
2022/03/04 03:54:29;;;;;;;40.20;26.50;;;;;;;7.34;77.37;100909.06;4996203;28;20041;-53
2022/03/04 03:56:55;;;;;;;36.20;23.20;;;;;;;7.27;78.26;100905.34;4996654;28;20079;-56
2022/03/04 03:59:20;;;;;;;43.55;27.90;;;;;;;7.25;78.11;100916.19;5012806;28;20030;-55
2022/03/04 04:01:46;;;;;;;43.00;27.60;;;;;;;7.21;78.34;100908.66;5013788;28;20049;-54
2022/03/04 04:04:12;;;;;;;44.97;28.35;;;;;;;7.16;78.39;100909.97;5014354;28;20022;-55
2022/03/04 04:06:39;;;;;;;46.45;29.00;;;;;;;7.17;79.22;100910.81;5013870;28;20028;-56
2022/03/04 04:09:08;;;;;;;40.88;27.83;;;;;;;7.14;79.17;100911.97;4996672;28;20503;-51
2022/03/04 04:11:36;;;;;;;51.65;30.80;;;;;;;7.13;80.36;100915.66;5014344;28;20061;-55
2022/03/04 04:14:04;;;;;;;40.28;28.20;;;;;;;7.10;79.14;100917.78;4996217;28;20030;-55
2022/03/04 04:16:30;;;;;;;45.35;27.80;;;;;;;7.04;79.74;100910.41;5012718;28;20033;-52
2022/03/04 04:18:56;;;;;;;48.33;29.35;;;;;;;7.03;80.61;100912.25;5014030;28;20537;-54
2022/03/04 04:21:24;;;;;;;46.40;30.17;;;;;;;7.05;80.55;100915.59;4996614;28;20038;-53
2022/03/04 04:23:51;;;;;;;51.50;28.65;;;;;;;7.09;79.95;100922.28;5013545;28;20036;-53
2022/03/04 04:26:16;;;;;;;44.75;27.95;;;;;;;7.13;79.47;100925.47;5013242;28;20081;-51
2022/03/04 04:28:42;;;;;;;44.85;27.92;;;;;;;7.11;79.80;100927.47;5013840;28;20506;-52
2022/03/04 04:31:08;;;;;;;38.15;26.40;;;;;;;7.19;79.03;100932.88;5013514;28;20057;-50
2022/03/04 04:33:34;;;;;;;43.70;28.13;;;;;;;7.24;78.65;100927.84;5012479;28;20097;-52
2022/03/04 04:35:59;;;;;;;47.30;28.70;;;;;;;7.27;78.92;100924.03;4996287;28;20342;-49
2022/03/04 04:38:25;;;;;;;44.47;28.40;;;;;;;7.26;78.73;100925.03;5013325;28;20053;-50
2022/03/04 04:40:51;;;;;;;40.03;27.23;;;;;;;7.30;78.99;100929.03;4998634;28;20034;-52
2022/03/04 04:43:24;;;;;;;42.50;27.05;;;;;;;7.33;78.84;100926.06;5018333;28;20109;-54
2022/03/04 04:45:53;;;;;;;45.33;28.38;;;;;;;7.37;78.81;100932.75;5001929;28;20359;-54
2022/03/04 04:48:20;;;;;;;45.55;27.42;;;;;;;7.39;78.71;100930.75;4999300;28;20036;-51
2022/03/04 04:50:49;;;;;;;42.92;27.45;;;;;;;7.41;78.45;100930.59;5018346;28;20061;-53
2022/03/04 04:53:16;;;;;;;53.35;32.30;;;;;;;7.40;78.91;100934.28;4997081;28;20145;-55
2022/03/04 04:55:51;;;;;;;51.72;33.47;;;;;;;7.35;79.21;100940.09;4997748;28;20038;-50
2022/03/04 04:58:19;;;;;;;48.90;30.73;;;;;;;7.32;79.22;100935.91;4997271;28;20038;-55
2022/03/04 05:00:53;;;;;;;48.63;29.52;;;;;;;7.28;78.62;100933.72;4999372;28;20133;-55
2022/03/04 05:03:22;;;;;;;38.70;26.02;;;;;;;7.27;78.96;100932.88;4998403;28;20026;-53
2022/03/04 05:05:54;;;;;;;55.95;30.55;;;;;;;7.28;79.19;100939.06;4998225;28;20030;-55
2022/03/04 05:11:37;;;;;;;64.53;39.72;;;;;;;7.19;80.62;100946.22;4999117;28;20026;-53
2022/03/04 05:14:03;;;;;;;61.38;37.45;;;;;;;7.17;80.38;100946.38;4997018;28;20040;-55
2022/03/04 05:16:32;;;;;;;58.47;37.28;;;;;;;7.17;81.16;100953.56;4997986;28;20042;-51
2022/03/04 05:18:58;;;;;;;70.78;38.10;;;;;;;7.03;80.21;100935.44;4999170;28;20038;-50
2022/03/04 05:21:24;;;;;;;65.35;36.60;;;;;;;7.16;80.60;100958.03;4998541;28;20026;-53
2022/03/04 05:23:59;;;;;;;63.45;38.13;;;;;;;7.15;80.30;100960.88;4999295;28;20054;-55
2022/03/04 05:26:52;;;;;;;63.42;37.47;;;;;;;7.14;81.64;100968.06;4999005;28;20049;-54
2022/03/04 05:29:18;;;;;;;64.07;37.75;;;;;;;7.11;81.49;100965.72;4996636;28;20030;-54
2022/03/04 05:31:44;;;;;;;59.42;35.50;;;;;;;7.04;80.19;100955.81;4995644;28;20076;-54
2022/03/04 05:34:12;;;;;;;56.63;33.53;;;;;;;7.05;81.57;100958.31;4996720;28;20042;-51
2022/03/04 05:36:38;;;;;;;60.35;34.15;;;;;;;7.06;80.32;100962.69;4996864;28;20348;-54
2022/03/04 05:39:05;;;;;;;47.92;31.02;;;;;;;7.08;80.49;100965.19;4996765;28;20526;-50
2022/03/04 05:41:31;;;;;;;46.53;29.83;;;;;;;7.09;80.50;100964.19;4996606;28;20057;-52
2022/03/04 05:43:57;;;;;;;53.90;30.58;;;;;;;7.11;80.74;100964.84;4996131;28;20109;-56
2022/03/04 05:46:23;;;;;;;55.75;34.03;;;;;;;7.05;80.36;100955.66;4999763;28;20058;-56
2022/03/04 05:48:49;;;;;;;45.88;27.98;;;;;;;7.05;80.90;100958.31;5001039;28;20026;-54
2022/03/04 05:51:15;;;;;;;48.58;28.92;;;;;;;7.00;80.67;100946.44;4999376;28;20049;-55
2022/03/04 05:53:41;;;;;;;50.72;32.47;;;;;;;7.07;81.15;100960.84;5005388;28;20085;-55
2022/03/04 05:56:09;;;;;;;68.53;38.05;;;;;;;7.11;81.27;100971.06;5016114;28;20037;-55
2022/03/04 05:58:37;;;;;;;49.90;31.33;;;;;;;7.09;80.92;100966.84;5014794;28;20026;-56
2022/03/04 06:01:03;;;;;;;49.22;30.27;;;;;;;7.01;80.69;100967.66;5016087;28;20473;-56
2022/03/04 06:03:29;;;;;;;66.20;34.67;;;;;;;7.15;81.03;101003.59;4998522;28;20022;-53
2022/03/04 06:05:56;;;;;;;54.42;32.55;;;;;;;7.16;80.88;100995.44;4998455;28;20497;-51
2022/03/04 06:08:21;;;;;;;58.42;33.75;;;;;;;7.22;80.48;100990.47;4998370;28;20033;-56
2022/03/04 06:10:47;;;;;;;60.28;35.85;;;;;;;7.18;80.41;100988.09;5015563;28;20076;-52
2022/03/04 06:13:13;;;;;;;50.78;30.08;;;;;;;7.23;80.79;100992.97;5015350;28;20022;-50
2022/03/04 06:15:39;;;;;;;41.58;26.85;;;;;;;7.22;80.57;100995.81;4998121;28;20370;-54
2022/03/04 06:18:05;;;;;;;47.70;28.98;;;;;;;7.25;80.24;100993.66;5015809;28;20034;-56
2022/03/04 06:20:31;;;;;;;47.25;30.30;;;;;;;7.27;80.89;100996.19;5016084;28;20109;-53
2022/03/04 06:22:58;;;;;;;45.80;29.48;;;;;;;7.26;80.67;100989.13;4998321;28;20038;-56
2022/03/04 06:25:24;;;;;;;44.65;27.95;;;;;;;7.27;80.74;100998.84;5015687;28;20034;-55
2022/03/04 06:27:59;;;;;;;49.17;29.17;;;;;;;7.25;80.95;100993.66;5016389;28;20444;-52
2022/03/04 06:30:28;;;;;;;46.20;29.33;;;;;;;7.33;81.48;101016.91;5017519;28;20041;-56
2022/03/04 06:33:30;;;;;;;71.72;39.70;;;;;;;6.94;83.79;101007.47;5016834;28;20509;-54
2022/03/04 06:35:41;;;;;;;62.38;35.80;;;;;;;6.88;84.77;101033.97;5001047;28;20038;-52
2022/03/04 06:38:07;;;;;;;60.35;32.95;;;;;;;6.63;85.96;101024.94;5015673;28;20030;-52
2022/03/04 06:40:32;;;;;;;45.38;27.35;;;;;;;6.58;86.49;101036.91;5015680;28;20482;-51
2022/03/04 06:42:58;;;;;;;41.55;25.98;;;;;;;6.57;85.15;101040.59;4997768;28;20084;-55
2022/03/04 06:45:24;;;;;;;30.17;22.08;;;;;;;6.31;85.38;101018.31;5015441;28;20427;-54
2022/03/04 06:47:51;;;;;;;32.88;21.33;;;;;;;6.31;85.27;101047.66;5015143;28;20062;-53
2022/03/04 06:50:17;;;;;;;25.55;18.67;;;;;;;6.20;85.35;101046.03;5015315;28;20037;-56
2022/03/04 06:52:43;;;;;;;29.92;19.35;;;;;;;6.12;85.46;101037.97;5014476;28;20052;-57
2022/03/04 06:55:10;;;;;;;26.92;18.15;;;;;;;6.16;84.42;101052.66;5014880;28;20435;-51
2022/03/04 06:57:35;;;;;;;33.53;20.25;;;;;;;6.08;86.12;101060.59;4997067;28;20040;-55
2022/03/04 07:00:07;;;;;;;31.20;19.50;;;;;;;5.97;85.83;101062.44;5014764;28;20034;-55
2022/03/04 07:02:34;;;;;;;27.15;19.55;;;;;;;6.03;85.94;101069.03;4997149;28;20382;-55
2022/03/04 07:05:02;;;;;;;26.02;19.45;;;;;;;5.99;86.27;101070.31;5014473;28;20041;-55
2022/03/04 07:07:28;;;;;;;25.13;16.95;;;;;;;5.98;85.64;101066.81;5014798;28;20037;-55
2022/03/04 07:09:54;;;;;;;26.40;18.00;;;;;;;6.02;85.52;101067.34;5014982;28;20034;-54
2022/03/04 07:12:20;;;;;;;22.23;16.17;;;;;;;6.03;85.45;101071.69;4996713;28;20117;-55
2022/03/04 07:14:46;;;;;;;25.30;17.98;;;;;;;6.05;85.62;101076.88;4997014;28;20034;-55
2022/03/04 07:17:12;;;;;;;28.10;18.65;;;;;;;6.06;84.70;101081.22;4996710;28;20038;-51
2022/03/04 07:19:38;;;;;;;27.48;17.63;;;;;;;6.05;85.14;101082.19;5014301;28;20049;-55
2022/03/04 07:22:04;;;;;;;24.05;17.02;;;;;;;6.04;85.35;101084.03;5014835;28;20068;-53
2022/03/04 07:24:30;;;;;;;23.60;16.17;;;;;;;5.98;84.96;101063.28;5013472;28;20026;-54
2022/03/04 07:26:57;;;;;;;26.48;18.38;;;;;;;6.09;84.82;101089.78;5014729;28;20145;-53
2022/03/04 07:29:23;;;;;;;27.10;17.50;;;;;;;6.05;84.63;101087.53;5013941;28;20036;-55
2022/03/04 07:31:50;;;;;;;25.15;16.00;;;;;;;6.08;84.21;101093.41;5013590;28;20422;-54
2022/03/04 07:34:16;;;;;;;23.77;16.90;;;;;;;6.00;84.04;101080.81;5014083;28;20045;-53
2022/03/04 07:36:41;;;;;;;23.05;17.58;;;;;;;5.87;84.17;101061.66;5014762;28;20064;-53
2022/03/04 07:39:07;;;;;;;26.55;18.08;;;;;;;5.91;84.58;101081.69;4997048;28;20036;-51
2022/03/04 07:41:33;;;;;;;25.20;17.30;;;;;;;5.94;84.40;101085.88;5014548;28;20034;-55
2022/03/04 07:44:00;;;;;;;21.33;17.60;;;;;;;5.94;84.01;101092.06;5014171;28;20030;-53
2022/03/04 07:46:25;;;;;;;24.33;16.95;;;;;;;5.89;83.41;101094.31;5013018;28;20076;-54
2022/03/04 07:48:51;;;;;;;20.65;16.38;;;;;;;5.84;83.95;101085.09;5014171;28;20466;-54
2022/03/04 07:51:17;;;;;;;25.45;19.58;;;;;;;5.92;84.00;101107.34;5013647;28;20034;-53
2022/03/04 07:53:44;;;;;;;22.05;17.48;;;;;;;5.88;84.09;101089.13;5015118;28;20406;-54
2022/03/04 07:56:10;;;;;;;22.75;16.40;;;;;;;5.97;83.24;101099.78;5013993;28;20026;-52
2022/03/04 07:58:36;;;;;;;16.83;14.32;;;;;;;6.05;82.69;101093.69;5013960;28;20113;-54
2022/03/04 08:01:02;;;;;;;22.58;16.27;;;;;;;6.09;82.98;101092.44;5013832;28;20108;-52
2022/03/04 08:03:28;;;;;;;18.17;15.18;;;;;;;6.14;82.23;101103.47;5014083;28;20026;-53
2022/03/04 08:05:54;;;;;;;19.33;14.77;;;;;;;6.23;81.62;101108.91;4996605;28;20104;-54
2022/03/04 08:08:19;;;;;;;22.05;15.50;;;;;;;6.29;82.06;101113.66;5014128;28;20030;-54
2022/03/04 08:10:45;;;;;;;15.10;13.50;;;;;;;6.42;80.94;101118.63;5014108;28;20026;-54
2022/03/04 08:13:11;;;;;;;19.52;15.18;;;;;;;6.44;81.35;101116.66;5013426;28;20034;-53
2022/03/04 08:15:37;;;;;;;19.13;15.43;;;;;;;6.41;81.31;101123.13;5016470;28;20061;-51
2022/03/04 08:18:03;;;;;;;22.77;16.65;;;;;;;6.33;81.38;101121.22;5017840;28;20057;-54
2022/03/04 08:20:31;;;;;;;19.90;15.45;;;;;;;6.33;80.69;101128.34;5017983;28;20061;-54
2022/03/04 08:22:58;;;;;;;18.67;14.48;;;;;;;6.34;81.29;101130.06;5017759;28;20434;-52
2022/03/04 08:25:24;;;;;;;18.73;15.75;;;;;;;6.29;81.42;101121.66;5017669;28;20060;-54
2022/03/04 08:27:51;;;;;;;19.15;14.77;;;;;;;6.35;80.63;101129.03;5000298;28;20443;-53
2022/03/04 08:30:17;;;;;;;20.23;14.88;;;;;;;6.39;81.24;101133.13;5016661;28;20038;-55
2022/03/04 08:32:42;;;;;;;18.98;13.93;;;;;;;6.44;80.75;101143.31;5018517;28;20040;-53
2022/03/04 08:35:09;;;;;;;19.15;15.85;;;;;;;6.47;80.89;101138.53;5017531;28;20041;-55
2022/03/04 08:37:35;;;;;;;24.27;17.05;;;;;;;6.35;80.64;101145.91;5017560;28;20034;-51
2022/03/04 08:40:03;;;;;;;18.73;15.35;;;;;;;6.19;81.92;101143.03;5017628;28;20112;-53
2022/03/04 08:42:29;;;;;;;18.38;15.65;;;;;;;6.14;81.81;101135.47;4999607;28;20085;-55
2022/03/04 08:44:55;;;;;;;24.23;16.60;;;;;;;6.17;81.54;101145.84;5017477;28;20022;-52
2022/03/04 08:47:21;;;;;;;21.85;16.50;;;;;;;6.00;82.16;101155.47;5017349;28;20036;-55
2022/03/04 08:49:47;;;;;;;18.63;16.15;;;;;;;5.91;82.24;101164.31;5016888;28;20034;-53
2022/03/04 08:52:13;;;;;;;16.45;14.75;;;;;;;5.93;82.16;101166.84;4999344;28;20088;-51
2022/03/04 08:54:39;;;;;;;18.50;15.60;;;;;;;5.79;82.09;101145.00;5016876;28;20050;-54
2022/03/04 08:57:06;;;;;;;16.30;14.70;;;;;;;5.97;82.47;101170.94;5017222;28;20026;-53
2022/03/04 08:59:33;;;;;;;16.98;14.00;;;;;;;5.99;81.77;101168.94;5016668;28;20029;-54
2022/03/04 09:01:59;;;;;;;15.63;14.13;;;;;;;5.98;81.66;101175.25;5016631;28;20037;-53
2022/03/04 09:04:25;;;;;;;14.65;12.85;;;;;;;6.04;81.98;101174.69;5016722;28;20057;-50
2022/03/04 09:06:50;;;;;;;16.23;14.52;;;;;;;6.07;81.49;101177.03;4998838;28;20076;-52
2022/03/04 09:09:16;;;;;;;16.15;14.45;;;;;;;5.98;81.73;101183.25;5016774;28;20239;-52
2022/03/04 09:11:43;;;;;;;14.73;13.23;;;;;;;5.99;81.85;101174.28;4999376;28;20168;-49
2022/03/04 09:14:09;;;;;;;15.57;13.98;;;;;;;5.99;81.68;101168.94;5016395;28;20033;-53
2022/03/04 09:16:35;;;;;;;15.55;13.52;;;;;;;5.98;82.17;101167.25;5016620;28;20072;-53
2022/03/04 09:19:02;;;;;;;14.55;13.05;;;;;;;6.00;82.00;101174.16;5015299;28;20133;-49
2022/03/04 09:21:28;;;;;;;14.35;13.02;;;;;;;5.96;81.66;101170.09;5016434;28;20029;-51
2022/03/04 09:23:54;;;;;;;14.60;13.20;;;;;;;5.88;82.15;101185.09;5015782;28;20022;-50
2022/03/04 09:26:20;;;;;;;15.02;13.50;;;;;;;5.82;82.08;101166.03;5016001;28;20053;-53
2022/03/04 09:28:47;;;;;;;15.07;13.43;;;;;;;5.90;81.40;101188.47;4999156;28;20067;-50
2022/03/04 09:31:13;;;;;;;14.52;13.23;;;;;;;5.89;81.54;101179.63;5016898;28;20340;-49
2022/03/04 09:33:39;;;;;;;14.00;12.40;;;;;;;5.94;81.83;101188.03;5016384;28;20034;-52
2022/03/04 09:36:06;;;;;;;13.45;12.15;;;;;;;5.94;81.90;101189.84;4998459;28;20092;-54
2022/03/04 09:38:32;;;;;;;14.10;12.70;;;;;;;5.99;81.64;101177.78;5015926;28;20033;-54
2022/03/04 09:40:59;;;;;;;14.95;12.57;;;;;;;5.86;81.92;101182.56;5015493;28;20040;-54
2022/03/04 09:43:25;;;;;;;11.20;10.25;;;;;;;5.86;81.69;101168.41;5016187;28;20057;-55
2022/03/04 09:45:51;;;;;;;11.85;10.88;;;;;;;5.91;82.27;101180.31;5015924;28;20061;-54
2022/03/04 09:48:18;;;;;;;11.98;10.82;;;;;;;5.97;82.14;101192.25;5016444;28;20038;-53
2022/03/04 09:50:46;;;;;;;10.98;10.07;;;;;;;5.89;81.83;101182.28;5015780;28;20026;-55
2022/03/04 09:53:13;;;;;;;10.80;10.00;;;;;;;6.01;81.54;101186.47;5015736;28;20108;-55
2022/03/04 09:55:40;;;;;;;10.65;9.75;;;;;;;6.02;81.89;101190.00;5015934;28;20061;-51
2022/03/04 09:58:10;;;;;;;11.23;10.23;;;;;;;5.94;81.77;101192.50;5016209;28;20080;-54
2022/03/04 10:00:37;;;;;;;10.98;10.07;;;;;;;5.87;81.73;101202.06;5016279;28;20032;-49
2022/03/04 10:03:04;;;;;;;11.38;10.25;;;;;;;5.81;81.46;101198.16;5016035;28;20080;-54
2022/03/04 10:05:30;;;;;;;10.38;9.57;;;;;;;5.84;81.40;101200.53;5015977;28;20095;-55
2022/03/04 10:07:55;;;;;;;9.55;8.68;;;;;;;5.94;81.42;101203.16;5016120;28;20028;-51
2022/03/04 10:10:22;;;;;;;9.98;9.23;;;;;;;5.98;81.28;101199.25;5015462;28;20453;-53
2022/03/04 10:12:51;;;;;;;9.93;9.13;;;;;;;5.92;81.03;101200.66;4997999;28;20053;-51
2022/03/04 10:15:19;;;;;;;8.98;8.27;;;;;;;5.88;81.45;101209.91;5015561;28;20026;-53
2022/03/04 10:17:58;;;;;;;10.48;9.43;;;;;;;5.85;81.37;101207.56;5016355;28;20049;-55
2022/03/04 10:20:43;;;;;;;10.13;9.13;;;;;;;5.84;82.84;101213.03;5015519;28;20031;-54
2022/03/04 10:23:14;;;;;;;11.25;10.35;;;;;;;5.69;82.93;101221.47;4998439;28;20022;-55
2022/03/04 10:25:48;;;;;;;11.00;10.00;;;;;;;5.62;83.24;101218.53;5015864;28;20108;-51
2022/03/04 10:28:14;;;;;;;10.68;9.68;;;;;;;5.52;83.60;101196.41;5015417;28;20112;-51
2022/03/04 10:30:47;;;;;;;10.20;9.30;;;;;;;5.69;84.03;101220.66;5015305;28;20034;-54
2022/03/04 10:33:16;;;;;;;10.48;9.68;;;;;;;5.75;84.85;101222.72;5015164;28;20069;-49
2022/03/04 10:35:42;;;;;;;10.48;9.60;;;;;;;5.63;85.13;101214.06;4998124;28;20030;-52
2022/03/04 10:38:19;;;;;;;12.25;10.55;;;;;;;5.75;85.85;101220.88;5014678;28;20033;-49
2022/03/04 10:40:44;;;;;;;12.18;11.07;;;;;;;5.79;86.04;101218.78;5015126;28;20033;-52
2022/03/04 10:43:12;;;;;;;11.18;10.23;;;;;;;5.77;86.14;101216.25;5014928;28;20038;-48
2022/03/04 10:45:41;;;;;;;10.90;10.00;;;;;;;5.94;86.36;101209.38;5014295;28;20121;-50
2022/03/04 10:48:14;;;;;;;11.60;10.45;;;;;;;6.17;86.53;101211.69;5015423;28;20129;-52
2022/03/04 10:50:42;;;;;;;11.85;10.85;;;;;;;6.16;86.61;101213.50;5014797;28;20083;-50
2022/03/04 10:53:13;;;;;;;12.85;11.55;;;;;;;6.13;87.11;101218.28;5014729;28;20424;-52
2022/03/04 10:55:44;;;;;;;13.23;11.95;;;;;;;6.18;87.14;101224.03;5013882;28;20025;-51
2022/03/04 10:58:17;;;;;;;12.85;11.65;;;;;;;6.00;87.27;101224.81;5015067;28;20143;-51
2022/03/04 11:00:46;;;;;;;14.68;12.20;;;;;;;5.96;88.63;101225.22;5014503;28;20378;-50
2022/03/04 11:03:23;;;;;;;12.57;11.48;;;;;;;5.83;89.30;101233.50;5014823;28;20026;-51
2022/03/04 11:05:52;;;;;;;12.27;11.07;;;;;;;5.78;88.32;101235.78;5014500;28;20481;-51
2022/03/04 11:08:18;;;;;;;12.20;11.10;;;;;;;5.94;89.02;101213.84;5014683;28;20466;-50
2022/03/04 11:10:44;;;;;;;12.35;11.20;;;;;;;5.96;87.13;101218.09;5014666;28;20115;-50
2022/03/04 11:13:11;;;;;;;14.63;13.13;;;;;;;6.07;86.84;101216.22;5014238;28;20037;-51
2022/03/04 11:15:38;;;;;;;18.27;13.00;;;;;;;5.95;87.26;101219.06;5014279;28;20045;-50
2022/03/04 11:18:06;;;;;;;14.70;13.30;;;;;;;5.96;88.43;101218.09;5014811;28;20026;-48
2022/03/04 11:20:33;;;;;;;15.52;13.93;;;;;;;6.07;88.29;101213.53;5012906;28;20037;-49